RA67307 UWKS-UUBI
Flight info
| Callsign | RA67307 |
|---|---|
| Flight time | 0h 47m |
| Altitude | 26000 |
| Route | N0480F260 IRGOS T613 DOGOB M864 IBROT T784 ROKUR |
| Aircraft | C500/M-VGDW/C |
Departure
| Time | 2026-04-29 17:36 |
|---|---|
| Airport | Cheboksary Airport (UWKS) |
Arrival
| Time | 2026-04-29 18:24 |
|---|---|
| Airport | Ivanovo South Airport (UUBI) |
| Time | Latitude | Longitude | Altitude | Speed | Heading |
|---|---|---|---|---|---|
| 2026-04-29 17:05 | 56.08400 | 47.32086 | 557 ft | 0 kts | 173° |
| 2026-04-29 17:33 | 56.08377 | 47.32097 | 562 ft | 9 kts | 140° |
| 2026-04-29 17:33 | 56.08419 | 47.32258 | 557 ft | 23 kts | 45° |
| 2026-04-29 17:33 | 56.08528 | 47.32540 | 557 ft | 30 kts | 55° |
| 2026-04-29 17:33 | 56.08655 | 47.32856 | 561 ft | 33 kts | 51° |
| 2026-04-29 17:34 | 56.08754 | 47.33239 | 562 ft | 37 kts | 72° |
| 2026-04-29 17:34 | 56.08842 | 47.33751 | 563 ft | 49 kts | 72° |
| 2026-04-29 17:34 | 56.08963 | 47.34381 | 557 ft | 58 kts | 73° |
| 2026-04-29 17:34 | 56.09095 | 47.35088 | 566 ft | 60 kts | 70° |
| 2026-04-29 17:35 | 56.09307 | 47.36219 | 553 ft | 52 kts | 78° |
| 2026-04-29 17:35 | 56.09359 | 47.36636 | 528 ft | 7 kts | 336° |
| 2026-04-29 17:35 | 56.09358 | 47.36520 | 538 ft | 4 kts | 252° |
| 2026-04-29 17:36 | 56.09357 | 47.36519 | 538 ft | 0 kts | 252° |
| 2026-04-29 17:36 | 56.09351 | 47.36485 | 541 ft | 23 kts | 252° |
| 2026-04-29 17:36 | 56.09186 | 47.35593 | 594 ft | 121 kts | 251° |
| 2026-04-29 17:36 | 56.08904 | 47.33987 | 1672 ft | 146 kts | 249° |
| 2026-04-29 17:37 | 56.08587 | 47.32278 | 3121 ft | 152 kts | 249° |
| 2026-04-29 17:37 | 56.08223 | 47.30321 | 3947 ft | 181 kts | 249° |
| 2026-04-29 17:37 | 56.07781 | 47.27904 | 4069 ft | 226 kts | 250° |
| 2026-04-29 17:37 | 56.07300 | 47.25353 | 5330 ft | 205 kts | 247° |
| 2026-04-29 17:38 | 56.06544 | 47.23155 | 6504 ft | 209 kts | 233° |
| 2026-04-29 17:38 | 56.05727 | 47.21019 | 7909 ft | 213 kts | 237° |
| 2026-04-29 17:38 | 56.04890 | 47.18674 | 8871 ft | 239 kts | 238° |
| 2026-04-29 17:38 | 56.03921 | 47.15877 | 9012 ft | 291 kts | 238° |
| 2026-04-29 17:39 | 56.02852 | 47.12832 | 10599 ft | 275 kts | 237° |
| 2026-04-29 17:39 | 56.01902 | 47.10104 | 12755 ft | 246 kts | 237° |
| 2026-04-29 17:39 | 56.01007 | 47.07574 | 14389 ft | 242 kts | 236° |
| 2026-04-29 17:39 | 56.00094 | 47.04979 | 15379 ft | 249 kts | 236° |
| 2026-04-29 17:40 | 55.99177 | 47.02370 | 16434 ft | 253 kts | 237° |
| 2026-04-29 17:40 | 55.98224 | 46.99675 | 17545 ft | 257 kts | 237° |
| 2026-04-29 17:40 | 55.97262 | 46.96946 | 18657 ft | 262 kts | 237° |
| 2026-04-29 17:40 | 55.96274 | 46.94159 | 19660 ft | 268 kts | 237° |
| 2026-04-29 17:41 | 55.95278 | 46.91333 | 20690 ft | 275 kts | 237° |
| 2026-04-29 17:41 | 55.94243 | 46.88415 | 21695 ft | 281 kts | 237° |
| 2026-04-29 17:41 | 55.93184 | 46.85425 | 22646 ft | 287 kts | 237° |
| 2026-04-29 17:41 | 55.92102 | 46.82387 | 23548 ft | 293 kts | 238° |
| 2026-04-29 17:42 | 55.91011 | 46.79314 | 24257 ft | 298 kts | 238° |
| 2026-04-29 17:42 | 55.89895 | 46.76175 | 25012 ft | 301 kts | 237° |
| 2026-04-29 17:42 | 55.88762 | 46.73001 | 25743 ft | 305 kts | 237° |
| 2026-04-29 17:42 | 55.87605 | 46.69764 | 26048 ft | 323 kts | 237° |
| 2026-04-29 17:43 | 55.86347 | 46.66238 | 26055 ft | 348 kts | 237° |
| 2026-04-29 17:43 | 55.85011 | 46.62515 | 26064 ft | 369 kts | 237° |
| 2026-04-29 17:43 | 55.83589 | 46.58540 | 26063 ft | 388 kts | 237° |
| 2026-04-29 17:43 | 55.82129 | 46.54480 | 26068 ft | 389 kts | 237° |
| 2026-04-29 17:44 | 55.80718 | 46.50392 | 26053 ft | 387 kts | 243° |
| 2026-04-29 17:44 | 55.79931 | 46.45811 | 26054 ft | 387 kts | 261° |
| 2026-04-29 17:44 | 55.79931 | 46.41086 | 26052 ft | 388 kts | 277° |
| 2026-04-29 17:44 | 55.80321 | 46.36314 | 26062 ft | 388 kts | 278° |
| 2026-04-29 17:45 | 55.80742 | 46.31634 | 26059 ft | 388 kts | 279° |
| 2026-04-29 17:45 | 55.81177 | 46.26894 | 26061 ft | 388 kts | 278° |
| 2026-04-29 17:45 | 55.81584 | 46.22147 | 26066 ft | 388 kts | 278° |
| 2026-04-29 17:45 | 55.81979 | 46.17396 | 26068 ft | 387 kts | 278° |
| 2026-04-29 17:46 | 55.82381 | 46.12695 | 26058 ft | 388 kts | 279° |
| 2026-04-29 17:46 | 55.82789 | 46.07940 | 26053 ft | 388 kts | 279° |
| 2026-04-29 17:46 | 55.83190 | 46.03197 | 26060 ft | 388 kts | 279° |
| 2026-04-29 17:46 | 55.83590 | 45.98437 | 26061 ft | 388 kts | 279° |
| 2026-04-29 17:47 | 55.83981 | 45.93749 | 26053 ft | 388 kts | 279° |
| 2026-04-29 17:47 | 55.84380 | 45.88991 | 26055 ft | 388 kts | 279° |
| 2026-04-29 17:47 | 55.84774 | 45.84218 | 26054 ft | 388 kts | 279° |
| 2026-04-29 17:47 | 55.85168 | 45.79460 | 26050 ft | 388 kts | 279° |
| 2026-04-29 17:48 | 55.85554 | 45.74758 | 26043 ft | 388 kts | 279° |
| 2026-04-29 17:48 | 55.85942 | 45.70004 | 26042 ft | 388 kts | 279° |
| 2026-04-29 17:48 | 55.86330 | 45.65248 | 26047 ft | 388 kts | 279° |
| 2026-04-29 17:48 | 55.86714 | 45.60480 | 26046 ft | 388 kts | 279° |
| 2026-04-29 17:49 | 55.87100 | 45.55712 | 26043 ft | 388 kts | 279° |
| 2026-04-29 17:49 | 55.87475 | 45.51013 | 26044 ft | 388 kts | 279° |
| 2026-04-29 17:49 | 55.87856 | 45.46234 | 26045 ft | 388 kts | 279° |
| 2026-04-29 17:49 | 55.88236 | 45.41470 | 26047 ft | 388 kts | 279° |
| 2026-04-29 17:50 | 55.88611 | 45.36692 | 26044 ft | 388 kts | 279° |
| 2026-04-29 17:50 | 55.88982 | 45.31996 | 26045 ft | 388 kts | 279° |
| 2026-04-29 17:50 | 55.89354 | 45.27218 | 26048 ft | 388 kts | 279° |
| 2026-04-29 17:50 | 55.89725 | 45.22456 | 26047 ft | 388 kts | 279° |
| 2026-04-29 17:51 | 55.90094 | 45.17682 | 26046 ft | 388 kts | 279° |
| 2026-04-29 17:51 | 55.90456 | 45.12957 | 26047 ft | 388 kts | 279° |
| 2026-04-29 17:51 | 55.90824 | 45.08185 | 26046 ft | 388 kts | 279° |
| 2026-04-29 17:51 | 55.91183 | 45.03425 | 26049 ft | 388 kts | 279° |
| 2026-04-29 17:52 | 55.91547 | 44.98657 | 26049 ft | 388 kts | 279° |
| 2026-04-29 17:52 | 55.91783 | 44.95495 | 26052 ft | 387 kts | 279° |
| 2026-04-29 17:52 | 55.92259 | 44.89174 | 26050 ft | 387 kts | 279° |
| 2026-04-29 17:52 | 55.92614 | 44.84397 | 26048 ft | 387 kts | 279° |
| 2026-04-29 17:53 | 55.92968 | 44.79627 | 26043 ft | 387 kts | 279° |
| 2026-04-29 17:53 | 55.93316 | 44.74918 | 26048 ft | 387 kts | 279° |
| 2026-04-29 17:53 | 55.93665 | 44.70135 | 26049 ft | 387 kts | 279° |
| 2026-04-29 17:53 | 55.94014 | 44.65369 | 26049 ft | 387 kts | 279° |
| 2026-04-29 17:54 | 55.94356 | 44.60661 | 26049 ft | 386 kts | 279° |
| 2026-04-29 17:54 | 55.94699 | 44.55888 | 26046 ft | 386 kts | 279° |
| 2026-04-29 17:54 | 55.95042 | 44.51131 | 26048 ft | 386 kts | 279° |
| 2026-04-29 17:54 | 55.95375 | 44.46436 | 26049 ft | 386 kts | 279° |
| 2026-04-29 17:55 | 55.95715 | 44.41675 | 26050 ft | 386 kts | 279° |
| 2026-04-29 17:55 | 55.96050 | 44.36905 | 26052 ft | 386 kts | 279° |
| 2026-04-29 17:55 | 55.96382 | 44.32189 | 26049 ft | 385 kts | 279° |
| 2026-04-29 17:55 | 55.96710 | 44.27457 | 26051 ft | 385 kts | 279° |
| 2026-04-29 17:56 | 55.97043 | 44.22696 | 26050 ft | 385 kts | 279° |
| 2026-04-29 17:56 | 55.97372 | 44.17906 | 26055 ft | 385 kts | 279° |
| 2026-04-29 17:56 | 55.97697 | 44.13175 | 26055 ft | 385 kts | 279° |
| 2026-04-29 17:56 | 55.98016 | 44.08497 | 26057 ft | 384 kts | 279° |
| 2026-04-29 17:57 | 55.98339 | 44.03711 | 26052 ft | 384 kts | 279° |
| 2026-04-29 17:57 | 55.98660 | 43.98978 | 26060 ft | 384 kts | 279° |
| 2026-04-29 17:57 | 55.98971 | 43.94308 | 26058 ft | 384 kts | 278° |
| 2026-04-29 17:57 | 55.99182 | 43.91150 | 26060 ft | 384 kts | 279° |
| 2026-04-29 17:58 | 55.99600 | 43.84839 | 26061 ft | 383 kts | 279° |
| 2026-04-29 17:58 | 55.99914 | 43.80093 | 26064 ft | 383 kts | 278° |
| 2026-04-29 17:58 | 56.00222 | 43.75357 | 26061 ft | 383 kts | 278° |
| 2026-04-29 17:58 | 56.00531 | 43.70645 | 26063 ft | 383 kts | 278° |
| 2026-04-29 17:59 | 56.00835 | 43.65917 | 26063 ft | 382 kts | 278° |
| 2026-04-29 17:59 | 56.01137 | 43.61236 | 26065 ft | 382 kts | 278° |
| 2026-04-29 17:59 | 56.01437 | 43.56530 | 26064 ft | 382 kts | 278° |
| 2026-04-29 17:59 | 56.01737 | 43.51789 | 26065 ft | 382 kts | 278° |
| 2026-04-29 18:00 | 56.02031 | 43.47143 | 26063 ft | 381 kts | 278° |
| 2026-04-29 18:00 | 56.02325 | 43.42428 | 26063 ft | 381 kts | 278° |
| 2026-04-29 18:00 | 56.02413 | 43.41018 | 26064 ft | 381 kts | 278° |
| 2026-04-29 18:00 | 56.02703 | 43.36414 | 26065 ft | 381 kts | 278° |
| 2026-04-29 18:01 | 56.02905 | 43.31756 | 26061 ft | 382 kts | 273° |
| 2026-04-29 18:01 | 56.02958 | 43.26999 | 26063 ft | 381 kts | 274° |
| 2026-04-29 18:01 | 56.03059 | 43.22255 | 26068 ft | 381 kts | 274° |
| 2026-04-29 18:01 | 56.03149 | 43.17508 | 26065 ft | 381 kts | 274° |
| 2026-04-29 18:02 | 56.03221 | 43.12823 | 26070 ft | 381 kts | 274° |
| 2026-04-29 18:02 | 56.03287 | 43.08078 | 26068 ft | 381 kts | 274° |
| 2026-04-29 18:02 | 56.03365 | 43.03335 | 26069 ft | 381 kts | 274° |
| 2026-04-29 18:02 | 56.03438 | 42.98603 | 26073 ft | 381 kts | 274° |
| 2026-04-29 18:03 | 56.03509 | 42.93863 | 26073 ft | 380 kts | 274° |
| 2026-04-29 18:03 | 56.03574 | 42.89189 | 26076 ft | 380 kts | 274° |
| 2026-04-29 18:03 | 56.03639 | 42.84449 | 26077 ft | 380 kts | 274° |
| 2026-04-29 18:03 | 56.03706 | 42.79705 | 26079 ft | 380 kts | 274° |
| 2026-04-29 18:04 | 56.03765 | 42.75026 | 26076 ft | 379 kts | 273° |
| 2026-04-29 18:04 | 56.03827 | 42.70305 | 26083 ft | 379 kts | 274° |
| 2026-04-29 18:04 | 56.03886 | 42.65598 | 26081 ft | 379 kts | 273° |
| 2026-04-29 18:04 | 56.03941 | 42.60890 | 25759 ft | 370 kts | 273° |
| 2026-04-29 18:05 | 56.04012 | 42.56451 | 25408 ft | 351 kts | 276° |
| 2026-04-29 18:05 | 56.04602 | 42.52334 | 25034 ft | 334 kts | 294° |
| 2026-04-29 18:05 | 56.05712 | 42.48797 | 24673 ft | 321 kts | 304° |
| 2026-04-29 18:05 | 56.06923 | 42.45503 | 24325 ft | 312 kts | 304° |
| 2026-04-29 18:06 | 56.08100 | 42.42296 | 23972 ft | 305 kts | 304° |
| 2026-04-29 18:06 | 56.09251 | 42.39150 | 23625 ft | 299 kts | 304° |
| 2026-04-29 18:06 | 56.10383 | 42.36061 | 23215 ft | 294 kts | 303° |
| 2026-04-29 18:06 | 56.11494 | 42.33015 | 22810 ft | 290 kts | 303° |
| 2026-04-29 18:07 | 56.12578 | 42.30038 | 22418 ft | 287 kts | 303° |
| 2026-04-29 18:07 | 56.13671 | 42.27045 | 22026 ft | 285 kts | 303° |
| 2026-04-29 18:07 | 56.14752 | 42.24064 | 21643 ft | 283 kts | 303° |
| 2026-04-29 18:07 | 56.15827 | 42.21111 | 21264 ft | 282 kts | 303° |
| 2026-04-29 18:08 | 56.16897 | 42.18162 | 20890 ft | 281 kts | 303° |
| 2026-04-29 18:08 | 56.17948 | 42.15257 | 20532 ft | 281 kts | 302° |
| 2026-04-29 18:08 | 56.19019 | 42.12307 | 20167 ft | 280 kts | 302° |
| 2026-04-29 18:08 | 56.20148 | 42.09456 | 19812 ft | 280 kts | 308° |
| 2026-04-29 18:09 | 56.21354 | 42.06698 | 19459 ft | 280 kts | 306° |
| 2026-04-29 18:09 | 56.22512 | 42.03944 | 19116 ft | 279 kts | 306° |
| 2026-04-29 18:09 | 56.23692 | 42.01158 | 18775 ft | 279 kts | 306° |
| 2026-04-29 18:09 | 56.24882 | 41.98392 | 18431 ft | 279 kts | 306° |
| 2026-04-29 18:10 | 56.26072 | 41.95608 | 18041 ft | 279 kts | 306° |
| 2026-04-29 18:10 | 56.27240 | 41.92871 | 17662 ft | 279 kts | 306° |
| 2026-04-29 18:10 | 56.28419 | 41.90101 | 17278 ft | 278 kts | 306° |
| 2026-04-29 18:10 | 56.29585 | 41.87357 | 16906 ft | 277 kts | 306° |
| 2026-04-29 18:11 | 56.30760 | 41.84600 | 16528 ft | 277 kts | 306° |
| 2026-04-29 18:11 | 56.31931 | 41.81833 | 16162 ft | 276 kts | 306° |
| 2026-04-29 18:11 | 56.33104 | 41.79077 | 15800 ft | 275 kts | 306° |
| 2026-04-29 18:11 | 56.34246 | 41.76374 | 15446 ft | 275 kts | 306° |
| 2026-04-29 18:12 | 56.35405 | 41.73639 | 15092 ft | 274 kts | 306° |
| 2026-04-29 18:12 | 56.36561 | 41.70906 | 14739 ft | 273 kts | 306° |
| 2026-04-29 18:12 | 56.37710 | 41.68179 | 14390 ft | 272 kts | 306° |
| 2026-04-29 18:12 | 56.38862 | 41.65454 | 14044 ft | 272 kts | 306° |
| 2026-04-29 18:13 | 56.40004 | 41.62735 | 13671 ft | 271 kts | 306° |
| 2026-04-29 18:13 | 56.41136 | 41.60052 | 13288 ft | 271 kts | 306° |
| 2026-04-29 18:13 | 56.42276 | 41.57333 | 12907 ft | 270 kts | 306° |
| 2026-04-29 18:13 | 56.43416 | 41.54622 | 12490 ft | 271 kts | 306° |
| 2026-04-29 18:14 | 56.44529 | 41.51972 | 11967 ft | 265 kts | 307° |
| 2026-04-29 18:14 | 56.45943 | 41.49903 | 11487 ft | 262 kts | 328° |
| 2026-04-29 18:14 | 56.47550 | 41.48404 | 11039 ft | 257 kts | 331° |
| 2026-04-29 18:14 | 56.49155 | 41.47006 | 10600 ft | 253 kts | 332° |
| 2026-04-29 18:15 | 56.50721 | 41.45662 | 10191 ft | 252 kts | 332° |
| 2026-04-29 18:15 | 56.52263 | 41.44372 | 9802 ft | 250 kts | 333° |
| 2026-04-29 18:15 | 56.52586 | 41.44108 | 9716 ft | 249 kts | 333° |
| 2026-04-29 18:15 | 56.54161 | 41.42811 | 9308 ft | 247 kts | 333° |
| 2026-04-29 18:16 | 56.55711 | 41.41491 | 8918 ft | 244 kts | 332° |
| 2026-04-29 18:16 | 56.57211 | 41.40138 | 8538 ft | 242 kts | 332° |
| 2026-04-29 18:16 | 56.58708 | 41.38759 | 8166 ft | 240 kts | 331° |
| 2026-04-29 18:16 | 56.60191 | 41.37386 | 7792 ft | 238 kts | 331° |
| 2026-04-29 18:17 | 56.61167 | 41.36476 | 7552 ft | 237 kts | 331° |
| 2026-04-29 18:17 | 56.62632 | 41.35098 | 7181 ft | 236 kts | 331° |
| 2026-04-29 18:17 | 56.64555 | 41.33263 | 6707 ft | 235 kts | 331° |
| 2026-04-29 18:17 | 56.66005 | 41.31865 | 6335 ft | 234 kts | 331° |
| 2026-04-29 18:18 | 56.66955 | 41.30931 | 6082 ft | 234 kts | 331° |
| 2026-04-29 18:18 | 56.68384 | 41.29520 | 5704 ft | 233 kts | 331° |
| 2026-04-29 18:18 | 56.69802 | 41.28094 | 5331 ft | 232 kts | 331° |
| 2026-04-29 18:18 | 56.71214 | 41.26668 | 4963 ft | 231 kts | 331° |
| 2026-04-29 18:19 | 56.72594 | 41.25252 | 4589 ft | 229 kts | 332° |
| 2026-04-29 18:19 | 56.73984 | 41.23837 | 4224 ft | 227 kts | 333° |
| 2026-04-29 18:19 | 56.75398 | 41.22568 | 3942 ft | 225 kts | 335° |
| 2026-04-29 18:19 | 56.76805 | 41.21324 | 3681 ft | 224 kts | 335° |
| 2026-04-29 18:20 | 56.78193 | 41.20105 | 3422 ft | 223 kts | 335° |
| 2026-04-29 18:20 | 56.79588 | 41.18877 | 3165 ft | 222 kts | 335° |
| 2026-04-29 18:20 | 56.80974 | 41.17650 | 2920 ft | 220 kts | 335° |
| 2026-04-29 18:20 | 56.82341 | 41.16450 | 2684 ft | 219 kts | 335° |
| 2026-04-29 18:21 | 56.83711 | 41.15244 | 2444 ft | 218 kts | 335° |
| 2026-04-29 18:21 | 56.85077 | 41.14050 | 2197 ft | 217 kts | 335° |
| 2026-04-29 18:21 | 56.86431 | 41.12881 | 2064 ft | 211 kts | 335° |
| 2026-04-29 18:21 | 56.87724 | 41.11762 | 2027 ft | 204 kts | 335° |
| 2026-04-29 18:22 | 56.88711 | 41.10056 | 2002 ft | 197 kts | 300° |
| 2026-04-29 18:22 | 56.89356 | 41.07934 | 1992 ft | 186 kts | 306° |
| 2026-04-29 18:22 | 56.90017 | 41.05926 | 1898 ft | 186 kts | 303° |
| 2026-04-29 18:22 | 56.90696 | 41.03865 | 1628 ft | 192 kts | 304° |
| 2026-04-29 18:23 | 56.91401 | 41.01740 | 1354 ft | 198 kts | 303° |
| 2026-04-29 18:23 | 56.92106 | 40.99647 | 1073 ft | 182 kts | 302° |
| 2026-04-29 18:23 | 56.92693 | 40.97875 | 830 ft | 146 kts | 302° |
| 2026-04-29 18:23 | 56.93135 | 40.96539 | 639 ft | 106 kts | 301° |
| 2026-04-29 18:24 | 56.93508 | 40.95433 | 499 ft | 104 kts | 301° |
| 2026-04-29 18:24 | 56.93874 | 40.94325 | 408 ft | 91 kts | 301° |
| 2026-04-29 18:24 | 56.94055 | 40.93834 | 410 ft | 2 kts | 52° |
| 2026-04-29 18:24 | 56.94007 | 40.93953 | 409 ft | 23 kts | 123° |
| 2026-04-29 18:25 | 56.94022 | 40.94147 | 408 ft | 15 kts | 30° |
| 2026-04-29 18:25 | 56.94118 | 40.94281 | 407 ft | 20 kts | 45° |
| 2026-04-29 18:25 | 56.94127 | 40.94406 | 407 ft | 0 kts | 121° |